Time;durP1;ratioP1;P1;durP2;ratioP2;P2;SDS_P1;SDS_P2;PMS_P1;PMS_P2;Temp;Humidity;BMP_temperature;BMP_pressure;BME280_temperature;BME280_humidity;BME280_pressure;Samples;Min_cycle;Max_cycle;Signal;HPM_P1;HPM_P2
2021/10/12 00:01:28;;;;;;;12.33;5.73;;;;;9.90;102073.00;;;;10335420;28;20211;-78
2021/10/12 00:06:30;;;;;;;17.13;5.97;;;;;9.90;102063.00;;;;10351559;28;20219;-79
2021/10/12 00:11:31;;;;;;;16.00;5.60;;;;;9.90;102040.00;;;;10334743;28;20647;-79
2021/10/12 00:16:32;;;;;;;15.47;5.80;;;;;9.90;102047.00;;;;10351128;28;20230;-78
2021/10/12 00:21:34;;;;;;;17.33;6.33;;;;;9.90;102049.00;;;;10318426;28;20202;-78
2021/10/12 00:26:35;;;;;;;17.00;6.40;;;;;10.00;102039.00;;;;10334580;28;20233;-78
2021/10/12 00:31:37;;;;;;;15.17;6.87;;;;;10.00;102035.00;;;;10318169;28;20318;-79
2021/10/12 00:36:38;;;;;;;9.27;6.13;;;;;10.00;102044.00;;;;10334087;28;20206;-78
2021/10/12 00:41:40;;;;;;;14.27;6.87;;;;;10.00;102042.00;;;;10334314;28;20207;-79
2021/10/12 00:46:41;;;;;;;17.40;7.23;;;;;10.10;102044.00;;;;10334347;28;20274;-78
2021/10/12 00:51:43;;;;;;;17.00;7.93;;;;;10.10;102037.00;;;;10343583;28;20218;-78
2021/10/12 00:56:45;;;;;;;16.53;7.47;;;;;10.10;102036.00;;;;10333779;28;20863;-78
2021/10/12 01:01:46;;;;;;;13.13;6.90;;;;;10.10;102046.00;;;;10349957;28;20258;-79
2021/10/12 01:06:48;;;;;;;13.50;6.77;;;;;10.10;102043.00;;;;10350099;28;20226;-79
2021/10/12 01:11:49;;;;;;;14.53;7.30;;;;;10.10;102034.00;;;;10317381;28;20198;-79
2021/10/12 01:16:51;;;;;;;15.93;5.93;;;;;10.00;102025.00;;;;10349063;28;20211;-78
2021/10/12 01:21:52;;;;;;;16.83;6.37;;;;;10.00;102003.00;;;;10348338;28;20195;-79
2021/10/12 01:26:54;;;;;;;19.97;6.77;;;;;9.90;101999.00;;;;10316056;28;20223;-78
2021/10/12 01:31:55;;;;;;;12.97;5.83;;;;;9.80;101994.00;;;;10332806;28;20199;-78
2021/10/12 01:36:56;;;;;;;15.80;6.43;;;;;9.70;101986.00;;;;10332988;28;20258;-79
2021/10/12 01:41:58;;;;;;;13.43;6.57;;;;;9.60;101971.00;;;;10332356;28;20196;-78
2021/10/12 01:46:59;;;;;;;14.00;6.07;;;;;9.50;101967.00;;;;10322767;28;20215;-78
2021/10/12 01:52:01;;;;;;;12.00;5.97;;;;;9.40;101968.00;;;;10338970;28;20200;-78
2021/10/12 01:57:02;;;;;;;18.17;7.03;;;;;9.30;101951.00;;;;10323404;28;20649;-78
2021/10/12 02:02:04;;;;;;;17.87;6.30;;;;;9.30;101939.00;;;;10307242;28;20195;-78
2021/10/12 02:07:06;;;;;;;16.73;8.23;;;;;9.40;101932.00;;;;10338962;28;20234;-78
2021/10/12 02:12:08;;;;;;;16.17;7.27;;;;;9.50;101948.00;;;;10323121;28;20203;-79
2021/10/12 02:17:09;;;;;;;12.93;7.87;;;;;9.50;101942.00;;;;10321849;28;20207;-78
2021/10/12 02:22:10;;;;;;;17.23;7.67;;;;;9.60;101946.00;;;;10338077;28;20203;-78
2021/10/12 02:27:12;;;;;;;13.67;8.83;;;;;9.70;101947.00;;;;10321878;28;20223;-78
2021/10/12 02:32:13;;;;;;;17.53;8.10;;;;;9.80;101931.00;;;;10337726;28;20213;-78
2021/10/12 02:37:14;;;;;;;22.63;8.00;;;;;9.80;101924.00;;;;10336936;28;20200;-79
2021/10/12 02:42:16;;;;;;;18.87;8.30;;;;;9.80;101924.00;;;;10321142;28;20200;-78
2021/10/12 02:47:17;;;;;;;14.07;7.43;;;;;9.80;101918.00;;;;10337353;28;20219;-78
2021/10/12 02:52:18;;;;;;;16.37;7.73;;;;;9.90;101904.00;;;;10337850;28;20195;-79
2021/10/12 02:57:19;;;;;;;11.03;6.87;;;;;9.90;101905.00;;;;10320776;28;20237;-79
2021/10/12 03:02:20;;;;;;;10.07;6.83;;;;;9.90;101910.00;;;;10305416;28;20204;-79
2021/10/12 03:07:22;;;;;;;15.47;7.60;;;;;9.90;101889.00;;;;10320740;28;20254;-79
2021/10/12 03:12:23;;;;;;;14.60;7.57;;;;;9.90;101880.00;;;;10304649;28;20200;-78
2021/10/12 03:17:24;;;;;;;16.93;7.93;;;;;9.90;101891.00;;;;10320112;28;20207;-79
2021/10/12 03:22:26;;;;;;;31.63;8.73;;;;;9.90;101877.00;;;;10304813;28;20206;-79
2021/10/12 03:27:27;;;;;;;16.80;7.30;;;;;9.90;101878.00;;;;10320026;28;20222;-79
2021/10/12 03:32:28;;;;;;;17.07;8.50;;;;;9.90;101876.00;;;;10320230;28;20835;-79
2021/10/12 03:37:29;;;;;;;13.43;7.20;;;;;9.90;101865.00;;;;10319869;28;20203;-79
2021/10/12 03:42:30;;;;;;;17.60;7.60;;;;;9.90;101857.00;;;;10319562;28;20199;-78
2021/10/12 03:47:32;;;;;;;18.70;7.63;;;;;10.00;101859.00;;;;10303466;28;20227;-79
2021/10/12 03:52:33;;;;;;;19.40;7.77;;;;;10.00;101862.00;;;;10319418;28;20223;-79
2021/10/12 03:57:34;;;;;;;13.77;7.90;;;;;10.00;101858.00;;;;10367869;28;20261;-79
2021/10/12 04:02:35;;;;;;;14.07;8.23;;;;;10.10;101854.00;;;;10335866;28;20222;-79
2021/10/12 04:07:37;;;;;;;16.10;7.07;;;;;10.10;101850.00;;;;10334681;28;20205;-79
2021/10/12 04:12:38;;;;;;;18.50;6.67;;;;;10.10;101849.00;;;;10334829;28;20195;-79
2021/10/12 04:17:39;;;;;;;20.67;6.93;;;;;10.20;101841.00;;;;10334546;28;20281;-79
2021/10/12 04:22:40;;;;;;;14.50;7.13;;;;;10.20;101846.00;;;;10335756;28;20204;-79
2021/10/12 04:27:41;;;;;;;13.80;6.20;;;;;10.20;101838.00;;;;10337925;28;20203;-79
2021/10/12 04:32:43;;;;;;;12.60;6.50;;;;;10.20;101831.00;;;;10318736;28;20273;-79
2021/10/12 04:37:44;;;;;;;14.93;6.70;;;;;10.20;101822.00;;;;10318399;28;20202;-79
2021/10/12 04:42:45;;;;;;;11.37;6.17;;;;;10.20;101822.00;;;;10350156;28;20838;-79
2021/10/12 04:47:47;;;;;;;16.93;7.10;;;;;10.20;101820.00;;;;10317778;28;20265;-79
2021/10/12 04:52:49;;;;;;;17.60;6.33;;;;;10.20;101818.00;;;;10317794;28;20647;-79
2021/10/12 04:57:50;;;;;;;15.87;7.33;;;;;10.20;101803.00;;;;10380500;28;20276;-79
2021/10/12 05:02:51;;;;;;;11.67;6.80;;;;;10.20;101802.00;;;;10374012;28;20191;-79
2021/10/12 05:07:53;;;;;;;13.63;6.27;;;;;10.20;101806.00;;;;10357724;28;20205;-79
2021/10/12 05:12:55;;;;;;;13.00;6.53;;;;;10.20;101801.00;;;;10373439;28;20222;-79
2021/10/12 05:17:57;;;;;;;11.57;6.60;;;;;10.20;101785.00;;;;10349667;28;20203;-79
2021/10/12 05:22:59;;;;;;;10.33;6.97;;;;;10.20;101781.00;;;;10308375;28;20876;-79
2021/10/12 05:28:01;;;;;;;14.20;7.13;;;;;10.20;101783.00;;;;10340249;28;20203;-79
2021/10/12 05:33:03;;;;;;;13.10;6.03;;;;;10.20;101774.00;;;;10324368;28;20199;-79
2021/10/12 05:38:04;;;;;;;16.13;6.93;;;;;10.10;101768.00;;;;10308506;28;20273;-80
2021/10/12 05:43:05;;;;;;;17.67;7.07;;;;;10.10;101765.00;;;;10340831;28;20222;-79
2021/10/12 05:48:08;;;;;;;15.77;7.37;;;;;10.00;101758.00;;;;10330397;28;20202;-79
2021/10/12 05:53:26;;;;;;;16.37;6.87;;;;;9.90;101768.00;;;;10339794;28;20258;-79
2021/10/12 05:58:31;;;;;;;12.77;6.43;;;;;10.00;101754.00;;;;10299620;28;20224;-80
2021/10/12 06:03:32;;;;;;;14.07;7.03;;;;;10.10;101739.00;;;;10347802;28;20223;-79
2021/10/12 06:08:34;;;;;;;18.47;7.27;;;;;10.20;101738.00;;;;10370174;28;20770;-79
2021/10/12 06:13:37;;;;;;;17.43;8.00;;;;;10.10;101741.00;;;;10322710;28;20242;-79
2021/10/12 06:18:38;;;;;;;16.90;7.27;;;;;10.20;101743.00;;;;10339366;28;20710;-80
2021/10/12 06:23:40;;;;;;;13.87;8.07;;;;;10.20;101734.00;;;;10339426;28;20226;-79
2021/10/12 06:28:41;;;;;;;14.27;8.60;;;;;10.40;101744.00;;;;10339354;28;20246;-79
2021/10/12 06:33:42;;;;;;;12.20;7.33;;;;;10.50;101741.00;;;;10354969;28;20559;-79
2021/10/12 06:38:43;;;;;;;14.80;8.03;;;;;10.50;101731.00;;;;10339357;28;20207;-79
2021/10/12 06:43:46;;;;;;;15.47;8.63;;;;;10.70;101738.00;;;;10322612;28;20238;-79
2021/10/12 06:48:47;;;;;;;20.43;8.80;;;;;10.90;101734.00;;;;10330307;28;20534;-79
2021/10/12 06:53:49;;;;;;;18.67;9.40;;;;;11.20;101727.00;;;;10298028;28;20200;-80
2021/10/12 06:58:50;;;;;;;16.37;7.73;;;;;11.50;101720.00;;;;10314062;28;20204;-80
2021/10/12 07:03:55;;;;;;;20.90;8.60;;;;;11.80;101727.00;;;;10321472;28;20254;-79
2021/10/12 07:08:56;;;;;;;17.23;8.53;;;;;12.00;101732.00;;;;10370881;28;20192;-80
2021/10/12 07:13:57;;;;;;;14.83;7.93;;;;;12.20;101738.00;;;;10322190;28;20573;-79
2021/10/12 07:18:59;;;;;;;23.00;9.20;;;;;12.30;101731.00;;;;10342652;28;20210;-80
2021/10/12 07:24:01;;;;;;;18.70;8.40;;;;;12.30;101735.00;;;;10353825;28;20222;-79
2021/10/12 07:29:02;;;;;;;17.40;8.13;;;;;12.20;101721.00;;;;10321711;28;20199;-79
2021/10/12 07:34:05;;;;;;;19.47;8.40;;;;;12.20;101711.00;;;;10321201;28;20203;-79
2021/10/12 07:39:07;;;;;;;19.23;8.10;;;;;12.20;101703.00;;;;10321584;28;20250;-79
2021/10/12 07:44:08;;;;;;;16.47;8.03;;;;;12.30;101707.00;;;;10319550;28;20234;-79
2021/10/12 07:49:10;;;;;;;17.67;8.73;;;;;12.50;101693.00;;;;10336883;28;20203;-80
2021/10/12 07:54:18;;;;;;;14.63;7.47;;;;;12.70;101702.00;;;;10337078;28;20317;-80
2021/10/12 07:59:19;;;;;;;21.50;7.83;;;;;12.70;101688.00;;;;10311982;28;20266;-79
2021/10/12 08:04:20;;;;;;;24.73;8.77;;;;;12.80;101690.00;;;;10324323;28;20273;-80
2021/10/12 08:09:21;;;;;;;12.50;7.83;;;;;13.00;101692.00;;;;10320883;28;20222;-79
2021/10/12 08:14:24;;;;;;;22.53;8.63;;;;;13.10;101695.00;;;;10304807;28;20195;-80
2021/10/12 08:19:25;;;;;;;18.00;8.30;;;;;13.30;101702.00;;;;10336319;28;20199;-80
2021/10/12 08:24:28;;;;;;;16.47;8.03;;;;;13.50;101696.00;;;;10336075;28;20706;-80
2021/10/12 08:29:29;;;;;;;15.70;7.70;;;;;13.40;101689.00;;;;10335920;28;20191;-80
2021/10/12 08:34:30;;;;;;;15.77;7.33;;;;;13.30;101688.00;;;;10350529;28;20200;-80
2021/10/12 08:39:32;;;;;;;21.53;9.00;;;;;13.50;101680.00;;;;10296142;28;20235;-80
2021/10/12 08:44:52;;;;;;;22.67;7.57;;;;;13.60;101679.00;;;;10297710;28;20231;-79
2021/10/12 08:49:55;;;;;;;14.70;7.87;;;;;13.80;101669.00;;;;10327326;28;20208;-80
2021/10/12 08:54:59;;;;;;;21.60;7.07;;;;;13.80;101657.00;;;;10309837;28;20220;-79
2021/10/12 09:00:11;;;;;;;20.47;6.70;;;;;13.80;101653.00;;;;10343064;28;20670;-80
2021/10/12 09:05:21;;;;;;;15.37;7.10;;;;;14.20;101647.00;;;;10343414;28;20211;-79
2021/10/12 09:10:24;;;;;;;13.50;6.40;;;;;14.20;101647.00;;;;10319450;28;20207;-80
2021/10/12 09:15:25;;;;;;;15.60;6.30;;;;;14.30;101643.00;;;;10351071;28;20306;-80
2021/10/12 09:20:28;;;;;;;16.03;6.73;;;;;14.30;101631.00;;;;10350030;28;20397;-80
2021/10/12 09:25:56;;;;;;;13.80;5.17;;;;;14.40;101631.00;;;;10334418;28;20249;-80
2021/10/12 09:30:58;;;;;;;19.47;6.27;;;;;14.60;101620.00;;;;10332374;28;20200;-80
2021/10/12 09:35:59;;;;;;;17.50;7.77;;;;;14.90;101621.00;;;;10333493;28;20852;-80
2021/10/12 09:41:07;;;;;;;19.47;5.27;;;;;15.30;101626.00;;;;10333403;28;20290;-80
2021/10/12 09:46:31;;;;;;;13.03;4.23;;;;;15.60;101619.00;;;;10333680;28;20223;-80
2021/10/12 09:51:32;;;;;;;15.53;4.03;;;;;16.20;101619.00;;;;10318538;28;20607;-80
2021/10/12 09:56:33;;;;;;;13.73;4.70;;;;;16.70;101618.00;;;;10318141;28;20239;-80
2021/10/12 10:01:35;;;;;;;13.73;4.00;;;;;16.70;101615.00;;;;10334951;28;20203;-80
2021/10/12 10:06:42;;;;;;;10.38;3.58;;;;;17.10;101602.00;;;;10334350;28;20227;-80
2021/10/12 10:11:43;;;;;;;9.15;3.10;;;;;16.80;101597.00;;;;10341563;28;20210;-79
2021/10/12 10:16:51;;;;;;;13.82;3.45;;;;;16.30;101591.00;;;;10340600;28;20199;-80
2021/10/12 10:21:54;;;;;;;9.05;3.58;;;;;16.20;101579.00;;;;10325112;28;20226;-80
2021/10/12 10:26:55;;;;;;;9.82;2.58;;;;;16.30;101587.00;;;;10340219;28;20224;-79
2021/10/12 10:32:00;;;;;;;9.90;2.72;;;;;16.30;101573.00;;;;10324314;28;20196;-80
2021/10/12 10:37:17;;;;;;;6.93;2.92;;;;;16.60;101570.00;;;;10340402;28;20207;-79
2021/10/12 10:42:27;;;;;;;10.48;3.90;;;;;16.80;101578.00;;;;10339907;28;20188;-80
2021/10/12 10:47:40;;;;;;;11.38;3.58;;;;;17.10;101565.00;;;;10323326;28;20227;-80
2021/10/12 10:52:48;;;;;;;6.72;3.28;;;;;17.30;101552.00;;;;10323508;28;20261;-80
2021/10/12 10:58:08;;;;;;;7.55;3.10;;;;;16.30;101549.00;;;;10371986;28;20352;-79
2021/10/12 11:03:36;;;;;;;9.38;3.53;;;;;15.50;101548.00;;;;10323688;28;20249;-80
2021/10/12 11:08:40;;;;;;;9.55;4.15;;;;;14.90;101550.00;;;;10355223;28;20195;-79
2021/10/12 11:13:43;;;;;;;12.82;4.28;;;;;14.40;101542.00;;;;10321993;28;20211;-79
2021/10/12 11:18:59;;;;;;;19.23;4.67;;;;;14.30;101541.00;;;;10319735;28;20258;-79
2021/10/12 11:24:02;;;;;;;9.57;4.17;;;;;14.90;101537.00;;;;10336552;28;20322;-79
2021/10/12 11:29:06;;;;;;;13.73;4.60;;;;;15.50;101524.00;;;;10337625;28;20203;-80
2021/10/12 11:34:08;;;;;;;13.23;4.37;;;;;16.20;101525.00;;;;10321223;28;20200;-79
2021/10/12 11:39:09;;;;;;;10.20;4.30;;;;;16.60;101527.00;;;;10321763;28;20659;-80
2021/10/12 11:44:16;;;;;;;11.30;3.85;;;;;16.30;101529.00;;;;10322391;28;20230;-79
2021/10/12 11:49:20;;;;;;;11.00;4.10;;;;;15.90;101524.00;;;;10313545;28;20203;-80
2021/10/12 11:54:27;;;;;;;12.02;4.85;;;;;15.20;101536.00;;;;10320421;28;20571;-79
2021/10/12 11:59:37;;;;;;;12.68;4.00;;;;;14.30;101529.00;;;;10338992;28;20199;-81
2021/10/12 12:04:38;;;;;;;12.80;4.87;;;;;14.20;101500.00;;;;10323076;28;20227;-80
2021/10/12 12:09:42;;;;;;;8.10;4.07;;;;;14.20;101483.00;;;;10337385;28;20203;-80
2021/10/12 12:14:43;;;;;;;10.97;4.63;;;;;14.30;101489.00;;;;10321052;28;20374;-80
2021/10/12 12:19:50;;;;;;;14.00;5.27;;;;;14.80;101489.00;;;;10378207;28;20203;-80
2021/10/12 12:24:52;;;;;;;9.83;5.40;;;;;14.90;101478.00;;;;10363171;28;20227;-80
2021/10/12 12:30:04;;;;;;;13.33;6.07;;;;;14.90;101477.00;;;;10337161;28;20203;-80
2021/10/12 12:35:07;;;;;;;14.13;6.33;;;;;15.20;101470.00;;;;10369665;28;20199;-80
2021/10/12 12:40:24;;;;;;;12.43;6.20;;;;;15.00;101473.00;;;;10337190;28;20575;-80
2021/10/12 12:45:26;;;;;;;15.10;6.53;;;;;15.00;101472.00;;;;10321579;28;20223;-81
2021/10/12 12:50:35;;;;;;;12.83;6.20;;;;;15.00;101463.00;;;;10322283;28;20203;-81
2021/10/12 12:55:43;;;;;;;15.93;6.43;;;;;14.70;101464.00;;;;10321308;28;20220;-81
2021/10/12 13:00:59;;;;;;;11.10;6.87;;;;;15.10;101462.00;;;;10353472;28;20206;-81
2021/10/12 13:06:01;;;;;;;13.30;6.03;;;;;14.90;101465.00;;;;10336151;28;20214;-80
2021/10/12 13:11:05;;;;;;;12.00;5.70;;;;;14.60;101462.00;;;;10312636;28;20226;-81
2021/10/12 13:16:06;;;;;;;13.80;6.00;;;;;14.80;101462.00;;;;10321077;28;20222;-81
2021/10/12 13:21:07;;;;;;;11.30;6.37;;;;;14.80;101462.00;;;;10336572;28;20207;-80
2021/10/12 13:26:09;;;;;;;10.83;6.60;;;;;14.30;101465.00;;;;10304175;28;20219;-80
2021/10/12 13:31:10;;;;;;;11.07;7.13;;;;;13.70;101460.00;;;;10327244;28;20849;-83
2021/10/12 13:36:12;;;;;;;15.67;6.97;;;;;13.40;101448.00;;;;10317819;28;20246;-84
2021/10/12 13:41:14;;;;;;;13.73;8.27;;;;;13.10;101449.00;;;;10315445;28;20210;-82
2021/10/12 13:46:15;;;;;;;13.17;8.17;;;;;13.10;101441.00;;;;10360056;28;20380;-83
2021/10/12 13:51:18;;;;;;;17.53;9.50;;;;;13.10;101432.00;;;;10318566;28;20210;-83
2021/10/12 13:56:19;;;;;;;23.70;9.73;;;;;13.10;101437.00;;;;10331287;28;20227;-81
2021/10/12 14:01:20;;;;;;;16.67;9.60;;;;;13.30;101439.00;;;;10335607;28;20228;-81
2021/10/12 14:06:22;;;;;;;21.40;10.80;;;;;13.70;101441.00;;;;10323038;28;20234;-80
2021/10/12 14:11:23;;;;;;;12.87;8.03;;;;;13.70;101454.00;;;;10317862;28;20199;-80
2021/10/12 14:16:24;;;;;;;14.50;7.50;;;;;14.00;101450.00;;;;10297309;28;20428;-80
2021/10/12 14:21:28;;;;;;;8.63;6.77;;;;;14.00;101452.00;;;;10356546;28;20195;-80
2021/10/12 14:26:30;;;;;;;13.57;6.70;;;;;14.40;101457.00;;;;10295003;28;20228;-81
2021/10/12 14:31:32;;;;;;;14.53;4.97;;;;;14.50;101466.00;;;;10343797;28;20605;-80
2021/10/12 14:36:34;;;;;;;8.80;4.30;;;;;14.20;101465.00;;;;10309185;28;20298;-80
2021/10/12 14:41:35;;;;;;;9.80;4.70;;;;;14.00;101445.00;;;;10303644;28;20215;-80
2021/10/12 14:46:37;;;;;;;8.07;4.00;;;;;14.00;101469.00;;;;10322167;28;20219;-81
2021/10/12 14:51:38;;;;;;;11.13;4.40;;;;;14.30;101465.00;;;;10320292;28;20203;-80
2021/10/12 14:56:39;;;;;;;7.03;3.83;;;;;14.40;101469.00;;;;10299540;28;20568;-81
2021/10/12 15:01:41;;;;;;;8.60;4.30;;;;;14.10;101482.00;;;;10306524;28;20211;-80
2021/10/12 15:06:42;;;;;;;7.53;4.27;;;;;13.90;101471.00;;;;10357688;28;20307;-81
2021/10/12 15:11:44;;;;;;;8.20;4.57;;;;;13.80;101462.00;;;;10306562;28;20214;-81
2021/10/12 15:16:46;;;;;;;9.27;4.30;;;;;13.90;101462.00;;;;10350818;28;20583;-81
2021/10/12 15:21:47;;;;;;;9.30;4.50;;;;;13.80;101457.00;;;;10320846;28;20222;-81
2021/10/12 15:26:48;;;;;;;11.23;4.93;;;;;13.50;101466.00;;;;10301338;28;20691;-81
2021/10/12 15:31:49;;;;;;;12.40;5.73;;;;;13.50;101472.00;;;;10322950;28;20214;-81
2021/10/12 15:36:51;;;;;;;5.23;3.90;;;;;13.40;101483.00;;;;10320107;28;20200;-81
2021/10/12 15:41:58;;;;;;;6.67;3.43;;;;;13.40;101492.00;;;;10298007;28;20195;-81
2021/10/12 15:47:00;;;;;;;5.77;3.70;;;;;13.30;101503.00;;;;10336706;28;20226;-81
2021/10/12 15:52:04;;;;;;;9.97;4.47;;;;;13.10;101494.00;;;;10319057;28;20195;-80
2021/10/12 15:57:05;;;;;;;8.67;3.50;;;;;13.20;101494.00;;;;10318331;28;20297;-80
2021/10/12 16:02:06;;;;;;;9.20;4.77;;;;;13.40;101493.00;;;;10337875;28;20203;-80
2021/10/12 16:07:09;;;;;;;6.13;4.30;;;;;13.40;101506.00;;;;10349141;28;20627;-81
2021/10/12 16:12:17;;;;;;;8.50;4.33;;;;;13.30;101507.00;;;;10290499;28;20786;-81
2021/10/12 16:22:38;;;;;;;8.53;4.43;;;;;13.10;101530.00;;;;10355384;28;20203;-80
2021/10/12 16:27:39;;;;;;;11.93;6.40;;;;;13.10;101528.00;;;;10332575;28;20215;-81
2021/10/12 16:32:48;;;;;;;12.23;5.70;;;;;13.10;101527.00;;;;10315088;28;20231;-81
2021/10/12 16:37:52;;;;;;;5.60;4.93;;;;;13.10;101534.00;;;;10339410;28;20298;-80
2021/10/12 16:42:53;;;;;;;10.77;4.87;;;;;13.00;101547.00;;;;10322504;28;20757;-80
2021/10/12 16:47:54;;;;;;;11.43;4.83;;;;;13.00;101567.00;;;;10324374;28;20222;-80
2021/10/12 16:52:56;;;;;;;7.23;3.80;;;;;12.90;101584.00;;;;10332765;28;20264;-80
2021/10/12 16:57:58;;;;;;;5.43;3.23;;;;;12.80;101609.00;;;;10319688;28;20227;-80
2021/10/12 17:03:02;;;;;;;5.93;2.77;;;;;12.60;101619.00;;;;10334685;28;20203;-80
2021/10/12 17:08:04;;;;;;;5.40;2.67;;;;;12.50;101629.00;;;;10326265;28;20226;-80
2021/10/12 17:13:05;;;;;;;7.20;2.77;;;;;12.30;101635.00;;;;10334651;28;20203;-78
2021/10/12 17:18:06;;;;;;;9.67;2.13;;;;;12.20;101659.00;;;;10347615;28;20675;-79
2021/10/12 17:23:09;;;;;;;3.17;1.63;;;;;12.00;101663.00;;;;10319786;28;20951;-79
2021/10/12 17:28:11;;;;;;;4.77;1.80;;;;;11.80;101668.00;;;;10335714;28;20220;-79
2021/10/12 17:33:13;;;;;;;8.57;1.60;;;;;11.60;101671.00;;;;10325656;28;20248;-79
2021/10/12 17:38:14;;;;;;;4.60;2.13;;;;;11.30;101684.00;;;;10320741;28;20221;-79
2021/10/12 17:43:17;;;;;;;9.63;1.97;;;;;11.10;101692.00;;;;10344081;28;20207;-79
2021/10/12 17:48:19;;;;;;;4.33;1.20;;;;;10.90;101697.00;;;;10336081;28;20299;-79
2021/10/12 17:53:25;;;;;;;6.03;1.83;;;;;10.80;101713.00;;;;10321755;28;20290;-79
2021/10/12 17:58:26;;;;;;;7.10;1.70;;;;;10.60;101715.00;;;;10347500;28;20219;-78
2021/10/12 18:03:31;;;;;;;7.40;1.67;;;;;10.40;101726.00;;;;10298246;28;20205;-79
2021/10/12 18:08:38;;;;;;;3.07;1.33;;;;;10.30;101729.00;;;;10325995;28;20590;-79
2021/10/12 18:13:41;;;;;;;7.43;1.67;;;;;10.10;101732.00;;;;10304134;28;20836;-81
2021/10/12 18:18:42;;;;;;;7.50;2.03;;;;;10.00;101741.00;;;;10308387;28;20196;-78
2021/10/12 18:23:56;;;;;;;4.07;2.00;;;;;9.80;101742.00;;;;10337386;28;20223;-80
2021/10/12 18:29:06;;;;;;;5.87;1.93;;;;;9.60;101741.00;;;;10333761;28;21000;-78
2021/10/12 18:34:08;;;;;;;5.03;1.70;;;;;9.50;101746.00;;;;10319749;28;20207;-78
2021/10/12 18:39:12;;;;;;;3.80;1.63;;;;;9.30;101751.00;;;;10333727;28;20196;-78
2021/10/12 18:44:15;;;;;;;9.50;2.07;;;;;9.10;101741.00;;;;10317765;28;20234;-78
2021/10/12 18:49:17;;;;;;;7.07;1.97;;;;;9.00;101748.00;;;;10334618;28;20690;-78
2021/10/12 18:54:18;;;;;;;4.13;2.03;;;;;8.80;101744.00;;;;10295047;28;20777;-78
2021/10/12 18:59:19;;;;;;;10.93;2.30;;;;;8.60;101745.00;;;;10330720;28;20290;-81
2021/10/12 19:04:21;;;;;;;4.97;1.90;;;;;8.40;101740.00;;;;10336160;28;20219;-81
2021/10/12 19:09:22;;;;;;;7.80;2.40;;;;;8.30;101734.00;;;;10336690;28;20827;-81
2021/10/12 19:14:23;;;;;;;7.87;2.60;;;;;8.10;101733.00;;;;10354364;28;20196;-80
2021/10/12 19:19:25;;;;;;;8.27;2.40;;;;;7.90;101733.00;;;;10320055;28;20212;-80
2021/10/12 19:24:28;;;;;;;7.03;3.20;;;;;7.80;101738.00;;;;10341081;28;20273;-80
2021/10/12 19:29:29;;;;;;;13.00;3.80;;;;;7.70;101741.00;;;;10348754;28;20235;-80
2021/10/12 19:34:30;;;;;;;7.93;3.63;;;;;7.50;101733.00;;;;10317506;28;20211;-80
2021/10/12 19:39:32;;;;;;;11.40;4.33;;;;;7.40;101732.00;;;;10300960;28;20211;-80
2021/10/12 19:44:33;;;;;;;12.00;3.77;;;;;7.30;101741.00;;;;10311193;28;20219;-81
2021/10/12 19:49:35;;;;;;;8.37;4.37;;;;;7.20;101741.00;;;;10341885;28;20195;-80
2021/10/12 19:54:37;;;;;;;9.67;4.73;;;;;7.10;101737.00;;;;10326423;28;20226;-80
2021/10/12 19:59:38;;;;;;;14.47;4.83;;;;;7.00;101744.00;;;;10325036;28;20203;-80
2021/10/12 20:04:39;;;;;;;11.83;4.53;;;;;6.90;101738.00;;;;10337742;28;20230;-80
2021/10/12 20:09:41;;;;;;;12.33;4.67;;;;;6.80;101736.00;;;;10332384;28;20202;-80
2021/10/12 20:14:42;;;;;;;9.83;4.60;;;;;6.80;101747.00;;;;10313836;28;20208;-80
2021/10/12 20:25:10;;;;;;;12.67;5.53;;;;;6.70;101756.00;;;;10352619;28;20267;-80
2021/10/12 20:30:11;;;;;;;8.73;5.47;;;;;6.60;101772.00;;;;10326624;28;20235;-80
2021/10/12 20:35:13;;;;;;;11.17;5.00;;;;;6.50;101781.00;;;;10289660;28;20210;-80
2021/10/12 20:40:14;;;;;;;11.50;4.60;;;;;6.50;101776.00;;;;10339119;28;20203;-80
2021/10/12 20:45:15;;;;;;;12.87;5.67;;;;;6.40;101785.00;;;;10326505;28;20235;-80
2021/10/12 20:50:16;;;;;;;12.37;5.30;;;;;6.30;101785.00;;;;10325081;28;20250;-80
2021/10/12 20:55:18;;;;;;;15.13;5.80;;;;;6.20;101799.00;;;;10353364;28;20265;-80
2021/10/12 21:00:19;;;;;;;9.17;5.20;;;;;6.10;101801.00;;;;10333406;28;20210;-81
2021/10/12 21:05:23;;;;;;;10.27;5.57;;;;;6.10;101813.00;;;;10330890;28;20257;-80
2021/10/12 21:10:24;;;;;;;10.23;5.80;;;;;6.10;101813.00;;;;10333657;28;20199;-80
2021/10/12 21:15:26;;;;;;;11.57;6.17;;;;;6.00;101823.00;;;;10316048;28;20239;-80
2021/10/12 21:20:27;;;;;;;10.47;5.17;;;;;5.90;101824.00;;;;10329591;28;20192;-80
2021/10/12 21:25:28;;;;;;;18.63;7.77;;;;;5.90;101822.00;;;;10314400;28;20223;-80
2021/10/12 21:30:30;;;;;;;12.70;4.10;;;;;5.90;101827.00;;;;10313364;28;20207;-80
2021/10/12 21:35:32;;;;;;;8.30;3.93;;;;;5.90;101829.00;;;;10309386;28;20214;-80
2021/10/12 21:40:34;;;;;;;7.67;4.80;;;;;5.80;101827.00;;;;10343188;28;20219;-80
2021/10/12 21:45:36;;;;;;;12.10;4.97;;;;;5.70;101827.00;;;;10307682;28;20224;-80
2021/10/12 21:50:37;;;;;;;14.03;4.70;;;;;5.70;101834.00;;;;10325575;28;20266;-80
2021/10/12 21:55:38;;;;;;;9.90;3.83;;;;;5.70;101851.00;;;;10291167;28;20223;-80
2021/10/12 22:00:40;;;;;;;14.00;4.43;;;;;5.60;101846.00;;;;10316136;28;20666;-80
2021/10/12 22:05:41;;;;;;;11.20;4.67;;;;;5.60;101840.00;;;;10316919;28;20301;-79
2021/10/12 22:10:43;;;;;;;11.13;5.17;;;;;5.50;101840.00;;;;10319242;28;20286;-79
2021/10/12 22:15:44;;;;;;;11.20;5.77;;;;;5.50;101843.00;;;;10347836;28;20607;-79
2021/10/12 22:20:46;;;;;;;13.40;6.37;;;;;5.50;101851.00;;;;10333463;28;20208;-79
2021/10/12 22:25:48;;;;;;;13.37;7.70;;;;;5.50;101852.00;;;;10331509;28;20226;-80
2021/10/12 22:30:49;;;;;;;14.10;7.50;;;;;5.50;101856.00;;;;10366394;28;20666;-79
2021/10/12 22:35:50;;;;;;;12.47;6.73;;;;;5.40;101854.00;;;;10345017;28;20211;-80
2021/10/12 22:40:52;;;;;;;16.67;6.73;;;;;5.40;101848.00;;;;10324542;28;20257;-80
2021/10/12 22:45:53;;;;;;;15.00;7.90;;;;;5.40;101854.00;;;;10328095;28;20211;-80
2021/10/12 22:50:54;;;;;;;20.03;7.27;;;;;5.40;101847.00;;;;10349017;28;20844;-79
2021/10/12 22:55:56;;;;;;;14.57;6.90;;;;;5.30;101851.00;;;;10338187;28;20309;-80
2021/10/12 23:01:00;;;;;;;12.10;6.77;;;;;5.30;101846.00;;;;10344561;28;20631;-80
2021/10/12 23:06:02;;;;;;;11.30;6.60;;;;;5.30;101852.00;;;;10300532;28;20220;-79
2021/10/12 23:11:04;;;;;;;16.47;7.27;;;;;5.20;101852.00;;;;10330446;28;20203;-79
2021/10/12 23:16:06;;;;;;;10.67;5.80;;;;;5.20;101850.00;;;;10323680;28;20213;-80
2021/10/12 23:21:10;;;;;;;14.87;6.53;;;;;5.20;101855.00;;;;10318280;28;20618;-79
2021/10/12 23:26:12;;;;;;;14.60;6.47;;;;;5.20;101846.00;;;;10329318;28;20224;-80
2021/10/12 23:31:13;;;;;;;18.77;6.90;;;;;5.20;101855.00;;;;10313692;28;20203;-80
2021/10/12 23:36:15;;;;;;;11.87;6.63;;;;;5.30;101869.00;;;;10327178;28;20204;-80
2021/10/12 23:41:16;;;;;;;16.10;7.17;;;;;5.40;101878.00;;;;10321021;28;20877;-80
2021/10/12 23:46:17;;;;;;;12.83;6.37;;;;;5.40;101884.00;;;;10333967;28;20223;-80
2021/10/12 23:51:19;;;;;;;14.03;6.73;;;;;5.40;101862.00;;;;10310612;28;20283;-80
2021/10/12 23:56:20;;;;;;;12.63;6.90;;;;;5.50;101879.00;;;;10345596;28;20255;-80
